createdAt,value
2017-08-28T00:02:17.452Z,19.60
2017-08-28T00:04:51.033Z,19.60
2017-08-28T00:07:24.550Z,19.50
2017-08-28T00:09:58.298Z,19.60
2017-08-28T00:12:31.830Z,19.50
2017-08-28T00:15:05.378Z,19.50
2017-08-28T00:17:39.015Z,19.30
2017-08-28T00:20:12.630Z,19.30
2017-08-28T00:22:46.138Z,19.20
2017-08-28T00:25:19.691Z,19.20
2017-08-28T00:27:53.238Z,19.20
2017-08-28T00:30:26.787Z,19.30
2017-08-28T00:33:00.452Z,19.20
2017-08-28T00:35:34.011Z,19.30
2017-08-28T00:38:07.521Z,19.30
2017-08-28T00:40:41.082Z,19.40
2017-08-28T00:43:15.596Z,19.30
2017-08-28T00:45:49.342Z,19.30
2017-08-28T00:48:22.941Z,19.30
2017-08-28T00:50:56.446Z,19.30
2017-08-28T00:53:30.865Z,19.30
2017-08-28T00:56:04.553Z,19.30
2017-08-28T00:58:38.083Z,19.30
2017-08-28T01:01:11.673Z,19.30
2017-08-28T01:03:45.342Z,19.30
2017-08-28T01:06:19.059Z,19.30
2017-08-28T01:08:52.663Z,19.30
2017-08-28T01:11:26.254Z,19.30
2017-08-28T01:13:59.785Z,19.30
2017-08-28T01:16:33.495Z,19.30
2017-08-28T01:19:07.092Z,19.20
2017-08-28T01:21:40.584Z,19.20
2017-08-28T01:24:14.152Z,19.30
2017-08-28T01:26:47.722Z,19.20
2017-08-28T01:29:21.467Z,19.20
2017-08-28T01:31:58.492Z,19.20
2017-08-28T01:34:32.066Z,19.20
2017-08-28T01:37:05.636Z,19.20
2017-08-28T01:39:39.352Z,19.20
2017-08-28T01:42:12.850Z,19.20
2017-08-28T01:44:46.423Z,19.20
2017-08-28T01:47:20.012Z,19.10
2017-08-28T01:49:53.701Z,19.10
2017-08-28T01:52:27.245Z,19.10
2017-08-28T01:55:00.755Z,19.10
2017-08-28T01:57:34.295Z,19.20
2017-08-28T02:00:07.949Z,19.20
2017-08-28T02:02:41.548Z,19.10
2017-08-28T02:05:15.143Z,19.10
2017-08-28T02:07:48.844Z,19.10
2017-08-28T02:10:22.529Z,19.10
2017-08-28T02:12:56.042Z,19.10
2017-08-28T02:15:29.606Z,19.10
2017-08-28T02:18:03.226Z,19.10
2017-08-28T02:20:36.928Z,19.10
2017-08-28T02:23:10.425Z,19.10
2017-08-28T02:25:44.060Z,19.10
2017-08-28T02:28:17.612Z,18.90
2017-08-28T02:30:51.136Z,18.90
2017-08-28T02:33:24.788Z,19.00
2017-08-28T02:35:58.288Z,18.90
2017-08-28T02:38:31.809Z,19.00
2017-08-28T02:41:05.335Z,19.00
2017-08-28T02:43:38.984Z,18.80
2017-08-28T02:46:12.636Z,18.80
2017-08-28T02:48:46.208Z,18.90
2017-08-28T02:51:19.717Z,18.90
2017-08-28T02:53:53.301Z,18.70
2017-08-28T02:56:26.852Z,18.50
2017-08-28T02:59:00.597Z,18.60
2017-08-28T03:01:34.168Z,18.70
2017-08-28T03:04:07.698Z,18.70
2017-08-28T03:06:41.227Z,18.70
2017-08-28T03:09:14.800Z,18.70
2017-08-28T03:11:48.514Z,18.70
2017-08-28T03:14:22.057Z,18.70
2017-08-28T03:16:55.790Z,18.70
2017-08-28T03:19:29.435Z,18.70
2017-08-28T03:22:03.075Z,18.60
2017-08-28T03:24:36.832Z,18.60
2017-08-28T03:27:10.381Z,18.60
2017-08-28T03:29:44.768Z,18.50
2017-08-28T03:35:17.860Z,18.50
2017-08-28T03:37:51.413Z,18.50
2017-08-28T03:40:24.909Z,18.60
2017-08-28T03:42:58.437Z,18.60
2017-08-28T03:45:31.944Z,18.60
2017-08-28T03:48:05.495Z,18.60
2017-08-28T03:50:39.146Z,18.60
2017-08-28T03:53:12.642Z,18.50
2017-08-28T03:55:46.215Z,18.60
2017-08-28T03:58:19.824Z,18.50
2017-08-28T04:00:53.371Z,18.50
2017-08-28T04:03:27.089Z,18.50
2017-08-28T04:06:02.635Z,18.50
2017-08-28T04:08:36.157Z,18.50
2017-08-28T04:11:09.656Z,18.50
2017-08-28T04:13:43.221Z,18.50
2017-08-28T04:16:16.872Z,18.50
2017-08-28T04:18:50.376Z,18.50
2017-08-28T04:21:23.958Z,18.50
2017-08-28T04:23:57.499Z,18.50
2017-08-28T04:26:31.794Z,18.50
2017-08-28T04:29:05.437Z,18.40
2017-08-28T04:31:39.046Z,18.40
2017-08-28T04:34:12.818Z,18.40
2017-08-28T04:36:46.347Z,18.40
2017-08-28T04:39:20.108Z,18.40
2017-08-28T04:41:53.663Z,18.40
2017-08-28T04:44:27.208Z,18.40
2017-08-28T04:47:07.172Z,18.40
2017-08-28T04:49:40.710Z,18.40
2017-08-28T04:52:14.340Z,18.30
2017-08-28T04:54:47.912Z,18.30
2017-08-28T04:57:21.522Z,18.30
2017-08-28T04:59:55.119Z,18.20
2017-08-28T05:02:28.677Z,18.20
2017-08-28T05:05:02.393Z,18.20
2017-08-28T05:07:36.049Z,18.20
2017-08-28T05:10:09.628Z,18.20
2017-08-28T05:12:43.200Z,18.20
2017-08-28T05:15:16.726Z,18.00
2017-08-28T05:17:50.332Z,17.90
2017-08-28T05:20:23.939Z,18.00
2017-08-28T05:22:57.520Z,18.00
2017-08-28T05:25:31.110Z,18.10
2017-08-28T05:28:04.768Z,18.20
2017-08-28T05:30:38.345Z,18.20
2017-08-28T05:33:11.844Z,18.30
2017-08-28T05:35:45.444Z,18.10
2017-08-28T05:38:18.967Z,18.10
2017-08-28T05:40:52.649Z,18.00
2017-08-28T05:43:26.308Z,17.90
2017-08-28T05:45:59.888Z,17.70
2017-08-28T05:48:33.489Z,17.80
2017-08-28T05:51:07.268Z,18.00
2017-08-28T05:53:40.813Z,18.10
2017-08-28T05:56:15.163Z,18.30
2017-08-28T05:58:48.672Z,18.30
2017-08-28T06:01:23.284Z,18.30
2017-08-28T06:03:57.026Z,18.30
2017-08-28T06:06:30.524Z,18.40
2017-08-28T06:09:04.079Z,18.40
2017-08-28T06:11:37.682Z,18.50
2017-08-28T06:14:11.395Z,18.30
2017-08-28T06:16:44.897Z,18.40
2017-08-28T06:19:18.412Z,18.50
2017-08-28T06:21:52.708Z,18.60
2017-08-28T06:24:26.249Z,18.60
2017-08-28T06:26:59.747Z,18.60
2017-08-28T06:29:33.326Z,18.50
2017-08-28T06:32:06.918Z,18.30
2017-08-28T06:34:40.468Z,18.30
2017-08-28T06:37:14.001Z,18.30
2017-08-28T06:39:47.710Z,18.40
2017-08-28T06:42:21.277Z,18.40
2017-08-28T06:44:54.790Z,18.50
2017-08-28T06:47:28.460Z,18.60
2017-08-28T06:50:02.106Z,18.80
2017-08-28T06:52:35.665Z,18.80
2017-08-28T06:55:09.211Z,18.90
2017-08-28T06:57:42.794Z,19.00
2017-08-28T07:00:16.428Z,19.00
2017-08-28T07:02:50.009Z,19.00
2017-08-28T07:05:23.521Z,19.10
2017-08-28T07:07:57.069Z,19.10
2017-08-28T07:10:30.737Z,19.10
2017-08-28T07:13:04.308Z,19.20
2017-08-28T07:15:37.831Z,19.20
2017-08-28T07:18:11.412Z,19.20
2017-08-28T07:20:44.944Z,19.20
2017-08-28T07:23:18.532Z,19.30
2017-08-28T07:25:52.090Z,19.30
2017-08-28T07:28:25.583Z,19.30
2017-08-28T07:30:59.146Z,19.40
2017-08-28T07:33:32.818Z,19.40
2017-08-28T07:36:06.526Z,19.40
2017-08-28T07:38:40.025Z,19.50
2017-08-28T07:41:13.543Z,19.50
2017-08-28T07:43:47.243Z,19.60
2017-08-28T07:46:20.955Z,19.60
2017-08-28T07:48:54.624Z,19.60
2017-08-28T07:51:28.185Z,19.70
2017-08-28T07:54:01.774Z,19.70
2017-08-28T07:56:35.437Z,19.80
2017-08-28T07:59:09.015Z,19.80
2017-08-28T08:01:42.565Z,19.80
2017-08-28T08:04:16.131Z,19.90
2017-08-28T08:06:49.834Z,19.90
2017-08-28T08:09:23.482Z,19.90
2017-08-28T08:11:57.071Z,20.00
2017-08-28T08:14:30.588Z,20.00
2017-08-28T08:17:04.099Z,20.10
2017-08-28T08:19:37.792Z,20.10
2017-08-28T08:22:11.293Z,20.20
2017-08-28T08:24:45.608Z,20.30
2017-08-28T08:27:19.112Z,20.30
2017-08-28T08:29:52.776Z,20.30
2017-08-28T08:32:26.383Z,20.40
2017-08-28T08:34:59.964Z,20.40
2017-08-28T08:37:33.516Z,20.50
2017-08-28T08:40:07.176Z,20.50
2017-08-28T08:42:40.739Z,20.60
2017-08-28T08:45:14.313Z,20.70
2017-08-28T08:47:47.849Z,20.70
2017-08-28T08:50:21.393Z,20.80
2017-08-28T08:52:55.047Z,20.80
2017-08-28T08:55:28.686Z,20.90
2017-08-28T08:58:02.238Z,21.00
2017-08-28T09:00:35.752Z,21.00
2017-08-28T09:03:09.581Z,21.10
2017-08-28T09:05:43.083Z,21.10
2017-08-28T09:08:16.660Z,21.20
2017-08-28T09:10:50.216Z,21.20
2017-08-28T09:13:23.872Z,21.20
2017-08-28T09:15:57.395Z,21.30
2017-08-28T09:18:31.012Z,21.30
2017-08-28T09:21:04.521Z,21.40
2017-08-28T09:23:38.541Z,21.50
2017-08-28T09:26:12.263Z,21.50
2017-08-28T09:28:45.800Z,21.60
2017-08-28T09:31:19.349Z,21.60
2017-08-28T09:33:52.889Z,21.70
2017-08-28T09:36:26.397Z,21.80
2017-08-28T09:38:59.934Z,21.80
2017-08-28T09:41:34.320Z,21.90
2017-08-28T09:44:07.977Z,22.00
2017-08-28T09:46:41.508Z,22.10
2017-08-28T09:49:15.113Z,22.10
2017-08-28T09:51:48.672Z,22.20
2017-08-28T09:54:22.201Z,22.30
2017-08-28T09:56:55.765Z,22.30
2017-08-28T09:59:29.309Z,22.40
2017-08-28T10:02:02.829Z,22.40
2017-08-28T10:04:36.365Z,22.50
2017-08-28T10:07:10.042Z,22.50
2017-08-28T10:09:43.648Z,22.50
2017-08-28T10:12:17.178Z,22.50
2017-08-28T10:14:50.840Z,22.60
2017-08-28T10:17:24.429Z,22.50
2017-08-28T10:19:58.004Z,22.50
2017-08-28T10:22:31.578Z,22.50
2017-08-28T10:25:05.231Z,22.50
2017-08-28T10:27:38.786Z,22.50
2017-08-28T10:30:12.383Z,22.50
2017-08-28T10:32:46.137Z,22.60
2017-08-28T10:35:19.700Z,22.60
2017-08-28T10:37:53.354Z,22.60
2017-08-28T10:40:26.905Z,22.70
2017-08-28T10:43:00.480Z,22.70
2017-08-28T10:45:34.151Z,22.80
2017-08-28T10:48:07.736Z,22.90
2017-08-28T10:50:41.250Z,22.90
2017-08-28T10:53:16.565Z,23.00
2017-08-28T10:55:50.237Z,23.00
2017-08-28T10:58:23.931Z,23.10
2017-08-28T11:00:57.481Z,23.20
2017-08-28T11:03:31.025Z,23.20
2017-08-28T11:06:04.742Z,23.30
2017-08-28T11:08:38.541Z,23.30
2017-08-28T11:11:12.059Z,23.40
2017-08-28T11:13:45.766Z,23.50
2017-08-28T11:16:19.452Z,23.50
2017-08-28T11:18:53.067Z,23.60
2017-08-28T11:21:26.688Z,23.60
2017-08-28T11:24:00.410Z,23.60
2017-08-28T11:26:34.084Z,23.70
2017-08-28T11:29:07.683Z,23.70
2017-08-28T11:31:41.315Z,23.80
2017-08-28T11:34:14.974Z,23.80
2017-08-28T11:36:48.578Z,23.80
2017-08-28T11:39:22.221Z,23.90
2017-08-28T11:41:55.879Z,23.90
2017-08-28T11:44:29.455Z,24.00
2017-08-28T11:47:03.131Z,24.00
2017-08-28T11:49:36.788Z,24.00
2017-08-28T11:52:10.489Z,24.10
2017-08-28T11:54:43.994Z,24.20
2017-08-28T11:57:17.712Z,24.30
2017-08-28T11:59:51.316Z,24.30
2017-08-28T12:02:25.013Z,24.30
2017-08-28T12:04:58.625Z,24.30
2017-08-28T12:07:32.202Z,24.30
2017-08-28T12:10:06.390Z,24.40
2017-08-28T12:12:40.025Z,24.40
2017-08-28T12:15:13.751Z,24.50
2017-08-28T12:17:47.303Z,24.50
2017-08-28T12:20:21.724Z,24.60
2017-08-28T12:22:55.301Z,24.60
2017-08-28T12:25:28.956Z,24.70
2017-08-28T12:28:02.596Z,24.70
2017-08-28T12:30:36.383Z,24.80
2017-08-28T12:33:10.085Z,24.80
2017-08-28T12:35:43.647Z,24.90
2017-08-28T12:38:17.216Z,25.00
2017-08-28T12:40:50.840Z,25.00
2017-08-28T12:43:24.356Z,25.00
2017-08-28T12:45:57.872Z,25.00
2017-08-28T12:48:31.413Z,25.00
2017-08-28T12:51:05.082Z,25.10
2017-08-28T12:53:38.598Z,25.20
2017-08-28T12:56:12.290Z,25.30
2017-08-28T12:58:46.089Z,25.30
2017-08-28T13:01:20.764Z,25.40
2017-08-28T13:03:55.425Z,25.40
2017-08-28T13:06:29.048Z,25.50
2017-08-28T13:09:02.653Z,25.60
2017-08-28T13:11:36.406Z,25.60
2017-08-28T13:14:11.234Z,25.60
2017-08-28T13:16:45.077Z,25.70
2017-08-28T13:19:18.633Z,25.70
2017-08-28T13:21:52.188Z,25.70
2017-08-28T13:24:25.723Z,25.70
2017-08-28T13:26:59.510Z,25.70
2017-08-28T13:29:33.280Z,25.70
2017-08-28T13:32:07.021Z,25.80
2017-08-28T13:34:40.879Z,25.70
2017-08-28T13:37:14.440Z,25.80
2017-08-28T13:39:48.159Z,25.80
2017-08-28T13:42:21.858Z,25.80
2017-08-28T13:44:57.156Z,25.80
2017-08-28T13:47:30.914Z,25.80
2017-08-28T13:50:04.604Z,25.80
2017-08-28T13:52:38.377Z,25.80
2017-08-28T13:55:12.863Z,25.90
2017-08-28T13:57:46.482Z,25.90
2017-08-28T14:00:20.218Z,25.90
2017-08-28T14:02:53.983Z,25.90
2017-08-28T14:05:27.895Z,25.90
2017-08-28T14:08:03.336Z,25.90
2017-08-28T14:10:37.019Z,25.80
2017-08-28T14:13:10.778Z,25.80
2017-08-28T14:15:44.447Z,25.80
2017-08-28T14:18:17.984Z,25.70
2017-08-28T14:20:51.622Z,25.70
2017-08-28T14:23:25.199Z,25.60
2017-08-28T14:25:58.749Z,25.60
2017-08-28T14:28:32.612Z,25.60
2017-08-28T14:31:06.260Z,25.60
2017-08-28T14:33:39.848Z,25.60
2017-08-28T14:36:14.532Z,25.70
2017-08-28T14:38:48.098Z,25.70
2017-08-28T14:41:21.872Z,25.70
2017-08-28T14:43:55.426Z,25.80
2017-08-28T14:46:29.073Z,25.80
2017-08-28T14:49:02.860Z,25.80
2017-08-28T14:51:36.714Z,25.80
2017-08-28T14:54:10.376Z,25.80
2017-08-28T14:56:44.079Z,25.80
2017-08-28T14:59:17.798Z,25.80
2017-08-28T15:01:51.554Z,25.90
2017-08-28T15:04:25.125Z,25.90
2017-08-28T15:06:58.792Z,25.90
2017-08-28T15:09:32.594Z,25.90
2017-08-28T15:12:06.375Z,25.90
2017-08-28T15:14:40.096Z,25.90
2017-08-28T15:17:13.763Z,25.90
2017-08-28T15:19:47.448Z,25.90
2017-08-28T15:22:22.156Z,25.90
2017-08-28T15:24:56.060Z,25.90
2017-08-28T15:27:29.826Z,25.90
2017-08-28T15:30:03.366Z,25.90
2017-08-28T15:32:37.012Z,25.90
2017-08-28T15:35:10.529Z,25.90
2017-08-28T15:37:44.308Z,25.90
2017-08-28T15:40:18.064Z,25.90
2017-08-28T15:42:51.796Z,25.80
2017-08-28T15:45:25.508Z,25.80
2017-08-28T15:47:59.233Z,25.80
2017-08-28T15:50:32.925Z,25.80
2017-08-28T15:53:06.574Z,25.70
2017-08-28T15:55:40.134Z,25.70
2017-08-28T15:58:13.844Z,25.70
2017-08-28T16:00:47.608Z,25.60
2017-08-28T16:03:21.289Z,25.60
2017-08-28T16:05:54.952Z,25.60
2017-08-28T16:08:28.485Z,25.50
2017-08-28T16:11:02.308Z,25.50
2017-08-28T16:13:35.869Z,25.50
2017-08-28T16:16:09.557Z,25.50
2017-08-28T16:18:43.249Z,25.50
2017-08-28T16:21:16.787Z,25.40
2017-08-28T16:23:50.461Z,25.40
2017-08-28T16:26:24.111Z,25.40
2017-08-28T16:28:58.643Z,25.40
2017-08-28T16:31:32.219Z,25.30
2017-08-28T16:34:06.010Z,25.30
2017-08-28T16:36:39.768Z,25.30
2017-08-28T16:39:13.484Z,25.30
2017-08-28T16:41:47.051Z,25.30
2017-08-28T16:44:20.657Z,25.30
2017-08-28T16:46:54.270Z,25.30
2017-08-28T16:49:28.014Z,25.30
2017-08-28T16:52:01.807Z,25.30
2017-08-28T16:54:35.368Z,25.30
2017-08-28T16:57:08.933Z,25.30
2017-08-28T16:59:42.713Z,25.30
2017-08-28T17:02:16.265Z,25.30
2017-08-28T17:04:49.989Z,25.30
2017-08-28T17:07:23.582Z,25.30
2017-08-28T17:09:57.195Z,25.30
2017-08-28T17:12:31.021Z,25.30
2017-08-28T17:15:04.640Z,25.30
2017-08-28T17:17:38.304Z,25.30
2017-08-28T17:20:11.982Z,25.30
2017-08-28T17:22:46.593Z,25.30
2017-08-28T17:25:20.274Z,25.30
2017-08-28T17:27:54.029Z,25.30
2017-08-28T17:30:27.737Z,25.30
2017-08-28T17:33:01.439Z,25.20
2017-08-28T17:35:34.996Z,25.20
2017-08-28T17:38:08.637Z,25.20
2017-08-28T17:40:43.105Z,25.20
2017-08-28T17:43:16.671Z,25.10
2017-08-28T17:45:50.367Z,25.10
2017-08-28T17:48:24.080Z,25.00
2017-08-28T17:50:57.794Z,25.00
2017-08-28T17:53:31.484Z,25.00
2017-08-28T17:56:05.430Z,25.00
2017-08-28T17:58:39.069Z,24.90
2017-08-28T18:01:12.573Z,24.90
2017-08-28T18:03:46.298Z,24.80
2017-08-28T18:06:19.872Z,24.80
2017-08-28T18:08:53.620Z,24.80
2017-08-28T18:11:27.256Z,24.70
2017-08-28T18:14:01.036Z,24.70
2017-08-28T18:16:34.637Z,24.70
2017-08-28T18:19:08.393Z,24.60
2017-08-28T18:21:41.939Z,24.60
2017-08-28T18:24:15.619Z,24.50
2017-08-28T18:26:49.338Z,24.50
2017-08-28T18:29:23.012Z,24.40
2017-08-28T18:31:56.659Z,24.40
2017-08-28T18:34:30.212Z,24.30
2017-08-28T18:37:03.778Z,24.30
2017-08-28T18:39:37.485Z,24.30
2017-08-28T18:42:11.065Z,24.20
2017-08-28T18:44:44.756Z,24.20
2017-08-28T18:47:18.472Z,24.20
2017-08-28T18:49:52.289Z,24.10
2017-08-28T18:52:26.047Z,24.00
2017-08-28T18:54:59.717Z,24.00
2017-08-28T18:57:33.416Z,24.00
2017-08-28T19:00:06.989Z,23.90
2017-08-28T19:02:40.653Z,23.90
2017-08-28T19:05:14.276Z,23.90
2017-08-28T19:07:47.937Z,23.80
2017-08-28T19:10:21.613Z,23.80
2017-08-28T19:12:55.376Z,23.80
2017-08-28T19:15:29.187Z,23.70
2017-08-28T19:18:02.973Z,23.70
2017-08-28T19:20:36.815Z,23.60
2017-08-28T19:23:10.541Z,23.60
2017-08-28T19:25:44.145Z,23.50
2017-08-28T19:28:17.763Z,23.50
2017-08-28T19:30:51.410Z,23.50
2017-08-28T19:33:25.899Z,23.40
2017-08-28T19:35:59.613Z,23.40
2017-08-28T19:38:33.139Z,23.40
2017-08-28T19:45:41.167Z,23.20
2017-08-28T19:48:14.866Z,23.20
2017-08-28T19:50:48.427Z,23.10
2017-08-28T19:53:22.088Z,23.10
2017-08-28T19:55:55.783Z,23.10
2017-08-28T19:58:29.358Z,23.10
2017-08-28T20:01:03.004Z,23.00
2017-08-28T20:03:36.717Z,23.00
2017-08-28T20:06:10.493Z,23.00
2017-08-28T20:08:44.308Z,22.90
2017-08-28T20:11:18.009Z,22.90
2017-08-28T20:13:51.662Z,22.90
2017-08-28T20:16:25.393Z,22.80
2017-08-28T20:18:59.036Z,22.70
2017-08-28T20:21:32.675Z,22.60
2017-08-28T20:24:06.284Z,22.40
2017-08-28T20:26:39.862Z,22.30
2017-08-28T20:29:13.521Z,22.10
2017-08-28T20:31:47.114Z,22.00
2017-08-28T20:34:20.684Z,21.90
2017-08-28T20:36:54.289Z,21.90
2017-08-28T20:39:28.069Z,21.80
2017-08-28T20:42:01.645Z,21.70
2017-08-28T20:44:35.200Z,21.70
2017-08-28T20:47:08.710Z,21.60
2017-08-28T20:49:42.372Z,21.60
2017-08-28T20:52:16.036Z,21.60
2017-08-28T20:54:49.583Z,21.50
2017-08-28T20:57:23.170Z,21.50
2017-08-28T20:59:56.718Z,21.40
2017-08-28T21:02:30.406Z,21.40
2017-08-28T21:05:03.963Z,21.30
2017-08-28T21:07:37.566Z,21.30
2017-08-28T21:10:11.135Z,21.30
2017-08-28T21:12:44.914Z,21.20
2017-08-28T21:15:18.470Z,21.20
2017-08-28T21:17:52.075Z,21.20
2017-08-28T21:20:25.697Z,21.10
2017-08-28T21:22:59.357Z,21.00
2017-08-28T21:25:33.033Z,21.00
2017-08-28T21:28:06.551Z,20.90
2017-08-28T21:30:40.079Z,20.90
2017-08-28T21:33:13.679Z,20.90
2017-08-28T21:35:47.385Z,20.80
2017-08-28T21:38:21.155Z,20.40
2017-08-28T21:40:54.733Z,20.50
2017-08-28T21:43:28.440Z,20.50
2017-08-28T21:46:02.129Z,20.50
2017-08-28T21:48:35.693Z,20.50
2017-08-28T21:51:09.294Z,20.40
2017-08-28T21:53:42.854Z,20.40
2017-08-28T21:56:16.545Z,20.40
2017-08-28T21:58:50.208Z,20.40
2017-08-28T22:01:23.807Z,20.40
2017-08-28T22:03:58.108Z,20.30
2017-08-28T22:06:31.815Z,20.30
2017-08-28T22:09:05.647Z,20.20
2017-08-28T22:11:40.326Z,19.60
2017-08-28T22:14:14.399Z,19.50
2017-08-28T22:16:48.017Z,19.60
2017-08-28T22:19:21.823Z,19.80
2017-08-28T22:21:55.603Z,19.90
2017-08-28T22:24:29.400Z,19.90
2017-08-28T22:27:03.284Z,19.90
2017-08-28T22:29:37.209Z,19.90
2017-08-28T22:32:10.949Z,19.90
2017-08-28T22:34:44.723Z,19.80
2017-08-28T22:37:18.844Z,19.80
2017-08-28T22:39:52.694Z,19.70
2017-08-28T22:42:27.902Z,19.70
2017-08-28T22:45:01.640Z,19.70
2017-08-28T22:47:35.382Z,19.70
2017-08-28T22:50:09.178Z,19.70
2017-08-28T22:52:42.954Z,19.70
2017-08-28T22:55:16.700Z,19.60
2017-08-28T22:57:50.578Z,19.60
2017-08-28T23:00:24.459Z,19.60
2017-08-28T23:02:58.239Z,19.60
2017-08-28T23:05:31.977Z,19.60
2017-08-28T23:08:05.681Z,19.60
2017-08-28T23:10:39.413Z,19.50
2017-08-28T23:13:13.203Z,19.50
2017-08-28T23:15:47.297Z,19.50
2017-08-28T23:18:21.034Z,19.50
2017-08-28T23:20:55.241Z,19.50
2017-08-28T23:23:29.728Z,19.50
2017-08-28T23:26:03.439Z,19.40
2017-08-28T23:28:37.230Z,19.40
2017-08-28T23:31:11.260Z,19.40
2017-08-28T23:33:46.224Z,19.30
2017-08-28T23:36:19.968Z,19.30
2017-08-28T23:38:53.700Z,19.30
2017-08-28T23:41:27.506Z,19.30
2017-08-28T23:44:01.411Z,19.10
2017-08-28T23:46:35.821Z,19.10
2017-08-28T23:49:09.414Z,19.10
2017-08-28T23:51:43.086Z,19.10
2017-08-28T23:54:16.873Z,19.10
2017-08-28T23:56:50.686Z,19.10
2017-08-28T23:59:24.447Z,19.10
